Phelan, CA (92371)

11:21 PM PDT on March 29, 2015 (GMT -0700)
La Mesa Rd and Eaby Rd | | Change Station
CLOSE
Current Station
Personal Weather Station
Location: Phelan, CA
Elevation: 3410 ft
Nearby Weather Stations

Elev 3410 ft 34.49 °N, 117.54 °W | Updated 33 seconds ago

Clear
Clear
59.0 °F
Feels Like 59.0 °F
N
0.7
Wind Variable Wind from South
Gusts 0.7 mph

Today
High -- | Low -- °F
--% Chance of Precip.
Yesterday
High -- | Low -- °F
Precip. -- in
6:41 AM 7:08 PM
Waxing Gibbous, 77% visible
Pressure 30.01 in
Visibility 10.0 miles
Clouds Clear
Dew Point 41 °F
Humidity 52%
Rainfall 0.00 in
Snow Depth Not available.
UV 0 out of 12
Pollen 8.80 out of 12
Air Quality Not available.
Flu Activity Not available.
METAR KGXA 300555Z AUTO 16004KT 10SM CLR 15/M04 A3008 RMK AO2 SLP161 T01491043 10304 20174 51015 TSNO $

More Conditions Fewer Conditions

Pressure 30.01 in
Visibility 10.0 miles
Clouds Clear
Dew Point 41 °F
Humidity 52%
Rainfall 0.00 in
Snow Depth Not available.
UV 0 out of 12
Pollen 8.80 out of 12
Air Quality Not available.
Flu Activity Not available.
METAR KGXA 300555Z AUTO 16004KT 10SM CLR 15/M04 A3008 RMK AO2 SLP161 T01491043 10304 20174 51015 TSNO $

More Conditions Fewer Conditions

10-Day Weather Forecast

Almanac

Astronomy

Mar. 29, 2015 Rise Set
Actual Time
Civil Twilight
Nautical Twilight
Astronomical Twilight
Moon
Length of Visible Light
Length of Day
Tomorrow will be .
, % of the Moon is Illuminated

Today's Extremes

State Highs State Lows

Community

WunderPhotos

Upload Photos

1,809,439 photos uploaded!

WunderBlogs® & News

Nearby

Air Quality

  Air Quality AQ Index Pollutant
Not available.

Snow Depth

Station Depth Elevation

Earthquake Activity

City Distance Mag. Time & Date
Minimum magnitude displayed is 2.5.

Coastal Water Temperatures

Place Temperature

Stations

Nearby Weather Stations

Station Location Temp. Windchill Dew Point Humidity Wind Precip. Elev Updated Type